Terminal Aerodrome Forecast
Issued by NWS

Home | Current Version | Previous Version | Text Only | Print | Product List | Glossary On
Versions: 1 2 3 4 5 6 7 8 9 10 11 12 13 14 15 16 17 18 19
000
FTUS41 KBTV 040533
TAFSLK
TAF
KSLK 040533Z 0406/0506 22014G20KT 3SM -SN BLSN BR SCT008 OVC015
      TEMPO 0406/0410 2SM -SN BLSN BKN007
     FM041000 24010KT 3SM BR VCSH SCT010 OVC020
     FM041400 25013G22KT P6SM SCT015 BKN030
     FM041700 25014G25KT P6SM FEW025 SCT050
     FM050300 25009KT P6SM SCT250=

USA.gov is the U.S. government's official web portal to all federal, state and local government web resources and services.